createdAt,value
2022-11-27T00:01:34.538Z,100.00
2022-11-27T00:04:02.985Z,100.00
2022-11-27T00:06:32.448Z,100.00
2022-11-27T00:09:02.022Z,100.00
2022-11-27T00:11:32.097Z,100.00
2022-11-27T00:14:00.825Z,100.00
2022-11-27T00:16:29.564Z,100.00
2022-11-27T00:18:57.889Z,100.00
2022-11-27T00:21:29.011Z,100.00
2022-11-27T00:23:57.650Z,100.00
2022-11-27T00:26:26.838Z,100.00
2022-11-27T00:28:56.199Z,100.00
2022-11-27T00:31:32.326Z,100.00
2022-11-27T00:34:02.968Z,100.00
2022-11-27T00:36:32.925Z,100.00
2022-11-27T00:39:01.461Z,100.00
2022-11-27T00:41:30.947Z,100.00
2022-11-27T00:43:59.092Z,100.00
2022-11-27T00:46:30.250Z,100.00
2022-11-27T00:48:59.012Z,100.00
2022-11-27T00:51:27.861Z,100.00
2022-11-27T00:53:56.091Z,100.00
2022-11-27T00:56:30.656Z,100.00
2022-11-27T00:58:58.853Z,100.00
2022-11-27T01:01:30.397Z,100.00
2022-11-27T01:04:00.396Z,100.00
2022-11-27T01:06:30.151Z,100.00
2022-11-27T01:08:59.209Z,100.00
2022-11-27T01:11:29.921Z,100.00
2022-11-27T01:14:04.069Z,100.00
2022-11-27T01:16:33.112Z,100.00
2022-11-27T01:19:02.268Z,100.00
2022-11-27T01:21:32.757Z,100.00
2022-11-27T01:24:02.211Z,100.00
2022-11-27T01:26:30.313Z,100.00
2022-11-27T01:28:59.025Z,100.00
2022-11-27T01:31:29.611Z,100.00
2022-11-27T01:34:00.874Z,100.00
2022-11-27T01:36:30.304Z,100.00
2022-11-27T01:38:59.071Z,100.00
2022-11-27T01:41:33.649Z,100.00
2022-11-27T01:44:24.789Z,100.00
2022-11-27T01:46:58.126Z,100.00
2022-11-27T01:49:31.310Z,100.00
2022-11-27T01:52:07.408Z,100.00
2022-11-27T01:54:56.319Z,100.00
2022-11-27T01:57:39.037Z,100.00
2022-11-27T02:00:09.513Z,100.00
2022-11-27T02:02:44.471Z,100.00
2022-11-27T02:05:18.430Z,100.00
2022-11-27T02:07:47.673Z,100.00
2022-11-27T02:10:16.589Z,100.00
2022-11-27T02:12:54.342Z,100.00
2022-11-27T02:15:40.832Z,100.00
2022-11-27T02:18:33.474Z,100.00
2022-11-27T02:21:07.196Z,100.00
2022-11-27T02:24:07.113Z,100.00
2022-11-27T02:26:44.122Z,100.00
2022-11-27T02:29:20.439Z,100.00
2022-11-27T02:31:48.347Z,100.00
2022-11-27T02:34:53.992Z,100.00
2022-11-27T02:37:30.722Z,100.00
2022-11-27T02:40:13.750Z,100.00
2022-11-27T02:42:48.103Z,100.00
2022-11-27T02:45:22.537Z,100.00
2022-11-27T02:47:50.833Z,100.00
2022-11-27T02:50:23.730Z,100.00
2022-11-27T02:52:57.984Z,100.00
2022-11-27T02:55:31.025Z,100.00
2022-11-27T02:58:01.762Z,100.00
2022-11-27T03:00:31.238Z,100.00
2022-11-27T03:03:03.571Z,100.00
2022-11-27T03:05:38.493Z,100.00
2022-11-27T03:08:14.116Z,100.00
2022-11-27T03:11:07.953Z,100.00
2022-11-27T03:13:41.227Z,100.00
2022-11-27T03:16:15.802Z,100.00
2022-11-27T03:19:11.626Z,100.00
2022-11-27T03:21:52.729Z,100.00
2022-11-27T03:24:20.527Z,100.00
2022-11-27T03:26:48.897Z,100.00
2022-11-27T03:29:51.848Z,100.00
2022-11-27T03:32:20.477Z,100.00
2022-11-27T03:34:49.417Z,100.00
2022-11-27T03:37:17.943Z,100.00
2022-11-27T03:39:46.064Z,100.00
2022-11-27T03:42:34.238Z,100.00
2022-11-27T03:45:26.159Z,100.00
2022-11-27T03:48:22.091Z,100.00
2022-11-27T03:51:07.674Z,100.00
2022-11-27T03:54:00.862Z,100.00
2022-11-27T03:56:50.205Z,100.00
2022-11-27T03:59:22.360Z,99.99
2022-11-27T04:01:50.851Z,99.79
2022-11-27T04:04:18.931Z,99.95
2022-11-27T04:06:46.743Z,99.97
2022-11-27T04:09:14.672Z,99.76
2022-11-27T04:11:42.427Z,99.82
2022-11-27T04:14:10.242Z,100.00
2022-11-27T04:16:38.205Z,99.92
2022-11-27T04:19:06.080Z,99.93
2022-11-27T04:21:33.918Z,99.82
2022-11-27T04:24:01.760Z,99.69
2022-11-27T04:26:29.523Z,99.93
2022-11-27T04:28:57.335Z,100.00
2022-11-27T04:31:25.215Z,100.00
2022-11-27T04:33:53.095Z,100.00
2022-11-27T04:36:20.915Z,100.00
2022-11-27T04:38:48.857Z,100.00
2022-11-27T04:41:16.880Z,100.00
2022-11-27T04:43:44.644Z,100.00
2022-11-27T04:46:12.548Z,100.00
2022-11-27T04:48:40.324Z,100.00
2022-11-27T04:51:08.096Z,100.00
2022-11-27T04:53:35.991Z,100.00
2022-11-27T04:56:04.066Z,100.00
2022-11-27T04:58:31.987Z,100.00
2022-11-27T05:00:59.856Z,100.00
2022-11-27T05:03:27.697Z,100.00
2022-11-27T05:05:57.230Z,100.00
2022-11-27T05:08:26.188Z,100.00
2022-11-27T05:11:21.837Z,100.00
2022-11-27T05:14:09.774Z,100.00
2022-11-27T05:16:37.807Z,100.00
2022-11-27T05:19:06.019Z,99.99
2022-11-27T05:21:33.871Z,99.97
2022-11-27T05:24:02.057Z,99.92
2022-11-27T05:26:30.028Z,99.85
2022-11-27T05:28:57.894Z,99.69
2022-11-27T05:31:25.928Z,99.50
2022-11-27T05:33:54.620Z,99.64
2022-11-27T05:36:22.721Z,99.47
2022-11-27T05:38:50.751Z,99.66
2022-11-27T05:41:18.915Z,99.28
2022-11-27T05:43:46.947Z,99.16
2022-11-27T05:46:19.704Z,99.29
2022-11-27T05:48:48.695Z,99.26
2022-11-27T05:51:17.495Z,99.28
2022-11-27T05:53:45.662Z,99.62
2022-11-27T05:56:18.303Z,99.83
2022-11-27T05:58:48.241Z,99.83
2022-11-27T06:01:18.185Z,99.78
2022-11-27T06:03:46.200Z,99.96
2022-11-27T06:06:17.110Z,100.00
2022-11-27T06:08:46.655Z,99.93
2022-11-27T06:11:18.806Z,99.98
2022-11-27T06:13:47.924Z,100.00
2022-11-27T06:16:21.316Z,100.00
2022-11-27T06:18:51.607Z,99.88
2022-11-27T06:21:20.944Z,99.81
2022-11-27T06:23:49.838Z,99.97
2022-11-27T06:26:28.986Z,100.00
2022-11-27T06:28:59.351Z,100.00
2022-11-27T06:31:30.891Z,100.00
2022-11-27T06:34:00.090Z,100.00
2022-11-27T06:36:32.128Z,99.95
2022-11-27T06:39:00.971Z,99.95
2022-11-27T06:41:29.327Z,100.00
2022-11-27T06:43:59.793Z,100.00
2022-11-27T06:46:28.460Z,100.00
2022-11-27T06:48:57.912Z,100.00
2022-11-27T06:51:30.040Z,100.00
2022-11-27T06:54:02.727Z,100.00
2022-11-27T06:56:31.891Z,100.00
2022-11-27T06:59:01.666Z,100.00
2022-11-27T07:01:31.583Z,100.00
2022-11-27T07:03:59.748Z,100.00
2022-11-27T07:06:27.961Z,100.00
2022-11-27T07:08:56.907Z,100.00
2022-11-27T07:11:30.194Z,100.00
2022-11-27T07:14:01.030Z,100.00
2022-11-27T07:16:31.906Z,100.00
2022-11-27T07:19:01.975Z,100.00
2022-11-27T07:22:40.513Z,100.00
2022-11-27T07:25:08.845Z,100.00
2022-11-27T07:27:36.855Z,100.00
2022-11-27T07:30:23.489Z,100.00
2022-11-27T07:32:51.424Z,100.00
2022-11-27T07:35:19.437Z,100.00
2022-11-27T07:37:47.406Z,100.00
2022-11-27T07:40:15.477Z,100.00
2022-11-27T07:42:43.544Z,100.00
2022-11-27T07:45:12.027Z,100.00
2022-11-27T07:47:40.096Z,100.00
2022-11-27T07:50:09.395Z,100.00
2022-11-27T07:52:41.494Z,100.00
2022-11-27T07:55:10.773Z,100.00
2022-11-27T07:57:38.901Z,100.00
2022-11-27T08:00:08.421Z,100.00
2022-11-27T08:02:36.513Z,100.00
2022-11-27T08:05:10.960Z,100.00
2022-11-27T08:07:40.992Z,100.00
2022-11-27T08:10:09.145Z,100.00
2022-11-27T08:12:37.292Z,100.00
2022-11-27T08:15:05.827Z,99.98
2022-11-27T08:17:34.159Z,99.89
2022-11-27T08:20:02.634Z,99.80
2022-11-27T08:22:30.803Z,99.96
2022-11-27T08:24:58.675Z,99.51
2022-11-27T08:27:26.801Z,99.20
2022-11-27T08:29:54.770Z,99.03
2022-11-27T08:32:22.813Z,99.14
2022-11-27T08:34:50.794Z,99.29
2022-11-27T08:37:18.728Z,99.40
2022-11-27T08:39:46.494Z,99.47
2022-11-27T08:42:14.452Z,99.71
2022-11-27T08:44:42.617Z,99.95
2022-11-27T08:47:10.895Z,99.73
2022-11-27T08:49:42.519Z,99.63
2022-11-27T08:52:13.185Z,99.44
2022-11-27T08:54:41.167Z,99.36
2022-11-27T08:57:09.206Z,99.24
2022-11-27T08:59:37.077Z,98.95
2022-11-27T09:02:05.298Z,98.55
2022-11-27T09:04:33.334Z,98.00
2022-11-27T09:07:01.258Z,97.66
2022-11-27T09:09:29.407Z,97.59
2022-11-27T09:11:57.191Z,97.11
2022-11-27T09:14:25.070Z,96.37
2022-11-27T09:16:54.050Z,96.14
2022-11-27T09:19:22.130Z,96.44
2022-11-27T09:21:50.808Z,96.38
2022-11-27T09:24:18.872Z,95.22
2022-11-27T09:26:46.872Z,95.47
2022-11-27T09:29:15.069Z,96.19
2022-11-27T09:31:43.015Z,96.22
2022-11-27T09:34:11.108Z,95.65
2022-11-27T09:36:39.182Z,95.50
2022-11-27T09:39:07.109Z,95.43
2022-11-27T09:41:52.739Z,94.85
2022-11-27T09:44:43.277Z,94.85
2022-11-27T09:47:14.202Z,94.67
2022-11-27T09:49:47.422Z,94.69
2022-11-27T09:52:15.356Z,94.79
2022-11-27T09:55:13.594Z,94.52
2022-11-27T09:57:44.520Z,94.14
2022-11-27T10:00:18.360Z,93.69
2022-11-27T10:02:46.687Z,93.91
2022-11-27T10:05:20.670Z,93.53
2022-11-27T10:08:26.182Z,93.29
2022-11-27T10:11:13.696Z,93.62
2022-11-27T10:14:19.731Z,93.31
2022-11-27T10:16:54.992Z,93.56
2022-11-27T10:19:44.775Z,93.68
2022-11-27T10:22:37.016Z,93.12
2022-11-27T10:25:29.723Z,92.47
2022-11-27T10:28:11.133Z,91.78
2022-11-27T10:30:58.241Z,89.52
2022-11-27T10:33:38.463Z,89.07
2022-11-27T10:36:14.897Z,87.43
2022-11-27T10:38:43.991Z,86.85
2022-11-27T10:44:32.597Z,87.54
2022-11-27T10:47:07.534Z,87.72
2022-11-27T10:49:40.387Z,87.65
2022-11-27T10:52:14.910Z,87.05
2022-11-27T10:54:45.986Z,86.69
2022-11-27T10:57:19.955Z,87.07
2022-11-27T10:59:53.964Z,86.34
2022-11-27T11:02:32.147Z,86.20
2022-11-27T11:06:12.156Z,84.93
2022-11-27T11:08:21.627Z,85.93
2022-11-27T11:10:49.391Z,85.03
2022-11-27T11:13:20.733Z,84.61
2022-11-27T11:15:51.976Z,84.35
2022-11-27T11:18:33.883Z,84.57
2022-11-27T11:21:08.821Z,84.53
2022-11-27T11:23:41.533Z,84.27
2022-11-27T11:26:21.655Z,83.10
2022-11-27T11:28:53.234Z,83.01
2022-11-27T11:31:41.754Z,82.91
2022-11-27T11:34:12.774Z,84.27
2022-11-27T11:36:41.819Z,84.47
2022-11-27T11:39:23.171Z,84.72
2022-11-27T11:41:51.272Z,84.99
2022-11-27T11:44:36.285Z,84.85
2022-11-27T11:47:04.466Z,84.84
2022-11-27T11:49:35.960Z,85.15
2022-11-27T11:52:28.416Z,85.26
2022-11-27T11:55:17.551Z,84.81
2022-11-27T11:58:24.349Z,84.07
2022-11-27T12:01:26.955Z,83.89
2022-11-27T12:04:10.942Z,84.12
2022-11-27T12:06:45.392Z,83.92
2022-11-27T12:09:24.631Z,83.61
2022-11-27T12:11:55.730Z,82.31
2022-11-27T12:14:50.367Z,82.16
2022-11-27T12:17:28.330Z,82.64
2022-11-27T12:20:25.767Z,83.20
2022-11-27T12:23:23.803Z,83.74
2022-11-27T12:25:56.793Z,83.87
2022-11-27T12:28:59.199Z,84.10
2022-11-27T12:32:08.953Z,84.22
2022-11-27T12:34:56.237Z,84.37
2022-11-27T12:37:39.368Z,84.39
2022-11-27T12:40:28.836Z,83.55
2022-11-27T12:43:22.793Z,83.32
2022-11-27T12:46:10.149Z,83.72
2022-11-27T12:48:44.072Z,84.52
2022-11-27T12:51:27.169Z,85.08
2022-11-27T12:54:18.891Z,85.35
2022-11-27T12:56:50.750Z,86.03
2022-11-27T12:59:36.821Z,86.15
2022-11-27T13:02:27.254Z,86.47
2022-11-27T13:05:02.931Z,86.66
2022-11-27T13:07:38.867Z,86.99
2022-11-27T13:10:18.800Z,87.12
2022-11-27T13:12:50.767Z,87.05
2022-11-27T13:16:09.880Z,87.51
2022-11-27T13:18:48.705Z,88.25
2022-11-27T13:21:23.729Z,88.86
2022-11-27T13:23:52.311Z,89.44
2022-11-27T13:26:30.070Z,89.91
2022-11-27T13:29:03.595Z,90.21
2022-11-27T13:31:35.984Z,90.37
2022-11-27T13:34:10.214Z,90.53
2022-11-27T13:36:44.973Z,90.69
2022-11-27T13:39:34.673Z,90.58
2022-11-27T13:42:06.115Z,90.88
2022-11-27T13:44:40.198Z,91.08
2022-11-27T13:47:15.130Z,91.03
2022-11-27T13:49:43.669Z,91.13
2022-11-27T13:52:16.896Z,91.72
2022-11-27T13:54:59.934Z,91.63
2022-11-27T13:57:30.067Z,91.65
2022-11-27T14:00:10.520Z,91.84
2022-11-27T14:03:00.004Z,92.36
2022-11-27T14:05:41.785Z,92.66
2022-11-27T14:08:36.233Z,92.89
2022-11-27T14:11:08.768Z,92.99
2022-11-27T14:13:42.010Z,93.29
2022-11-27T14:16:33.264Z,93.65
2022-11-27T14:19:04.757Z,93.97
2022-11-27T14:21:35.950Z,94.02
2022-11-27T14:24:07.052Z,94.15
2022-11-27T14:26:34.893Z,94.19
2022-11-27T14:29:02.874Z,94.45
2022-11-27T14:31:33.567Z,94.54
2022-11-27T14:34:24.261Z,94.72
2022-11-27T14:36:53.664Z,94.95
2022-11-27T14:39:37.037Z,95.29
2022-11-27T14:42:10.858Z,95.29
2022-11-27T14:44:38.671Z,95.59
2022-11-27T14:47:08.453Z,95.64
2022-11-27T14:49:36.572Z,95.80
2022-11-27T14:52:07.474Z,96.05
2022-11-27T14:54:38.640Z,95.85
2022-11-27T14:57:11.383Z,95.99
2022-11-27T14:59:40.706Z,96.42
2022-11-27T15:02:12.368Z,96.58
2022-11-27T15:04:43.020Z,96.89
2022-11-27T15:07:33.635Z,96.81
2022-11-27T15:10:17.093Z,96.94
2022-11-27T15:12:48.323Z,97.08
2022-11-27T15:15:18.917Z,97.01
2022-11-27T15:17:51.851Z,97.27
2022-11-27T15:20:46.926Z,97.54
2022-11-27T15:23:20.047Z,97.14
2022-11-27T15:25:52.613Z,97.06
2022-11-27T15:28:23.534Z,96.80
2022-11-27T15:30:51.807Z,96.90
2022-11-27T15:33:29.735Z,96.91
2022-11-27T15:36:19.485Z,96.63
2022-11-27T15:38:50.871Z,96.72
2022-11-27T15:41:21.750Z,96.55
2022-11-27T15:43:49.955Z,96.40
2022-11-27T15:46:34.622Z,96.32
2022-11-27T15:49:02.494Z,96.56
2022-11-27T15:51:30.879Z,96.74
2022-11-27T15:53:58.808Z,96.51
2022-11-27T15:56:27.830Z,96.23
2022-11-27T15:58:55.800Z,96.20
2022-11-27T16:01:23.999Z,96.48
2022-11-27T16:03:51.928Z,96.67
2022-11-27T16:06:23.473Z,96.82
2022-11-27T16:08:59.102Z,96.74
2022-11-27T16:11:29.037Z,96.97
2022-11-27T16:13:57.042Z,96.92
2022-11-27T16:16:25.173Z,96.95
2022-11-27T16:18:57.071Z,96.85
2022-11-27T16:21:29.455Z,96.86
2022-11-27T16:24:04.464Z,96.91
2022-11-27T16:26:33.058Z,96.91
2022-11-27T16:29:00.936Z,96.64
2022-11-27T16:31:29.009Z,96.45
2022-11-27T16:33:57.153Z,96.58
2022-11-27T16:36:26.553Z,96.58
2022-11-27T16:38:55.494Z,96.80
2022-11-27T16:41:25.862Z,96.81
2022-11-27T16:43:57.185Z,96.93
2022-11-27T16:46:29.008Z,97.12
2022-11-27T16:48:59.193Z,97.15
2022-11-27T16:51:32.185Z,97.27
2022-11-27T16:54:04.205Z,97.28
2022-11-27T16:56:33.995Z,97.03
2022-11-27T16:59:10.681Z,97.06
2022-11-27T17:01:41.830Z,96.73
2022-11-27T17:04:16.797Z,96.75
2022-11-27T17:06:45.790Z,96.72
2022-11-27T17:09:14.635Z,96.68
2022-11-27T17:11:48.593Z,96.83
2022-11-27T17:14:19.685Z,97.10
2022-11-27T17:16:47.802Z,97.23
2022-11-27T17:19:16.760Z,97.11
2022-11-27T17:21:46.076Z,97.27
2022-11-27T17:24:16.485Z,97.21
2022-11-27T17:26:49.427Z,97.23
2022-11-27T17:29:21.741Z,97.28
2022-11-27T17:31:51.308Z,97.33
2022-11-27T17:34:20.708Z,97.26
2022-11-27T17:36:53.788Z,97.15
2022-11-27T17:39:22.114Z,97.08
2022-11-27T17:41:50.188Z,97.28
2022-11-27T17:44:18.122Z,97.24
2022-11-27T17:46:50.072Z,97.20
2022-11-27T17:49:19.664Z,97.33
2022-11-27T17:51:48.685Z,97.29
2022-11-27T17:54:16.684Z,97.33
2022-11-27T17:56:51.162Z,97.46
2022-11-27T17:59:20.894Z,97.61
2022-11-27T18:01:51.452Z,97.58
2022-11-27T18:04:24.319Z,97.70
2022-11-27T18:06:52.904Z,98.05
2022-11-27T18:09:24.660Z,97.63
2022-11-27T18:11:55.687Z,97.38
2022-11-27T18:14:23.736Z,97.11
2022-11-27T18:16:52.307Z,97.30
2022-11-27T18:19:20.633Z,97.35
2022-11-27T18:21:48.499Z,97.43
2022-11-27T18:24:24.930Z,97.57
2022-11-27T18:27:10.366Z,97.79
2022-11-27T18:29:42.308Z,98.01
2022-11-27T18:32:11.881Z,97.65
2022-11-27T18:34:41.443Z,97.61
2022-11-27T18:37:09.957Z,98.16
2022-11-27T18:39:39.279Z,97.74
2022-11-27T18:42:07.780Z,97.39
2022-11-27T18:44:41.277Z,97.23
2022-11-27T18:47:14.605Z,97.40
2022-11-27T18:49:44.824Z,97.53
2022-11-27T18:52:14.098Z,97.72
2022-11-27T18:54:42.133Z,97.39
2022-11-27T18:57:11.269Z,97.39
2022-11-27T18:59:40.011Z,97.46
2022-11-27T19:02:10.499Z,97.48
2022-11-27T19:04:38.867Z,97.66
2022-11-27T19:07:06.904Z,97.39
2022-11-27T19:09:34.736Z,97.51
2022-11-27T19:12:03.193Z,97.62
2022-11-27T19:14:31.648Z,98.00
2022-11-27T19:16:59.901Z,98.08
2022-11-27T19:22:17.045Z,97.62
2022-11-27T19:24:45.138Z,98.22
2022-11-27T19:27:14.606Z,97.94
2022-11-27T19:29:42.797Z,97.82
2022-11-27T19:32:11.205Z,97.53
2022-11-27T19:34:39.562Z,97.81
2022-11-27T19:37:08.699Z,98.29
2022-11-27T19:39:36.584Z,98.15
2022-11-27T19:42:06.653Z,98.29
2022-11-27T19:44:35.961Z,97.97
2022-11-27T19:47:04.343Z,98.07
2022-11-27T19:49:32.425Z,98.23
2022-11-27T19:52:00.404Z,98.30
2022-11-27T19:54:29.676Z,98.07
2022-11-27T19:56:58.312Z,97.99
2022-11-27T19:59:26.981Z,98.09
2022-11-27T20:01:56.458Z,97.90
2022-11-27T20:04:27.832Z,97.79
2022-11-27T20:06:55.858Z,97.70
2022-11-27T20:09:24.604Z,97.62
2022-11-27T20:11:52.885Z,97.51
2022-11-27T20:14:20.839Z,97.41
2022-11-27T20:16:48.834Z,97.47
2022-11-27T20:19:17.951Z,97.60
2022-11-27T20:21:46.145Z,98.17
2022-11-27T20:24:14.616Z,98.41
2022-11-27T20:26:43.208Z,98.07
2022-11-27T20:29:12.880Z,97.82
2022-11-27T20:31:43.876Z,97.89
2022-11-27T20:34:18.205Z,97.96
2022-11-27T20:36:47.456Z,98.87
2022-11-27T20:39:20.844Z,98.35
2022-11-27T20:41:51.472Z,98.19
2022-11-27T20:44:22.257Z,98.16
2022-11-27T20:46:51.062Z,98.10
2022-11-27T20:49:20.712Z,98.17
2022-11-27T20:51:50.479Z,98.61
2022-11-27T20:54:20.967Z,98.64
2022-11-27T20:56:51.322Z,99.48
2022-11-27T20:59:20.014Z,99.67
2022-11-27T21:01:49.407Z,99.60
2022-11-27T21:04:27.214Z,99.61
2022-11-27T21:06:57.990Z,99.05
2022-11-27T21:09:27.062Z,98.89
2022-11-27T21:11:55.473Z,98.76
2022-11-27T21:14:23.463Z,98.94
2022-11-27T21:16:52.177Z,99.19
2022-11-27T21:19:24.235Z,99.32
2022-11-27T21:21:54.123Z,99.48
2022-11-27T21:24:26.353Z,99.47
2022-11-27T21:26:54.629Z,99.66
2022-11-27T21:29:25.550Z,99.24
2022-11-27T21:31:55.387Z,99.19
2022-11-27T21:34:24.959Z,99.13
2022-11-27T21:36:53.108Z,99.37
2022-11-27T21:39:21.667Z,99.27
2022-11-27T21:41:55.285Z,99.38
2022-11-27T21:44:25.046Z,99.21
2022-11-27T21:46:53.620Z,99.29
2022-11-27T21:49:22.110Z,99.58
2022-11-27T21:51:52.255Z,99.80
2022-11-27T21:54:21.143Z,99.96
2022-11-27T21:56:52.802Z,99.47
2022-11-27T21:59:21.117Z,99.35
2022-11-27T22:01:49.406Z,99.42
2022-11-27T22:04:18.268Z,99.45
2022-11-27T22:06:46.226Z,99.58
2022-11-27T22:09:16.089Z,99.68
2022-11-27T22:11:46.059Z,99.44
2022-11-27T22:14:15.938Z,99.32
2022-11-27T22:16:46.912Z,99.41
2022-11-27T22:19:16.731Z,99.57
2022-11-27T22:21:45.234Z,99.48
2022-11-27T22:24:18.811Z,99.41
2022-11-27T22:26:48.451Z,99.60
2022-11-27T22:29:17.004Z,99.54
2022-11-27T22:31:45.290Z,99.59
2022-11-27T22:34:15.255Z,99.45
2022-11-27T22:36:43.502Z,99.48
2022-11-27T22:39:11.626Z,99.67
2022-11-27T22:41:40.888Z,99.69
2022-11-27T22:44:14.290Z,99.68
2022-11-27T22:46:42.991Z,99.72
2022-11-27T22:49:14.073Z,99.61
2022-11-27T22:51:42.136Z,99.74
2022-11-27T22:54:15.009Z,99.69
2022-11-27T22:56:45.441Z,99.85
2022-11-27T23:02:07.171Z,99.91
2022-11-27T23:04:36.988Z,99.98
2022-11-27T23:07:06.209Z,99.99
2022-11-27T23:09:35.014Z,99.96
2022-11-27T23:12:03.197Z,99.95
2022-11-27T23:14:31.111Z,100.00
2022-11-27T23:16:59.121Z,100.00
2022-11-27T23:19:27.117Z,99.99
2022-11-27T23:21:55.056Z,100.00
2022-11-27T23:24:23.159Z,99.98
2022-11-27T23:26:51.136Z,99.97
2022-11-27T23:29:19.138Z,100.00
2022-11-27T23:31:47.137Z,100.00
2022-11-27T23:34:16.182Z,100.00
2022-11-27T23:36:44.563Z,99.97
2022-11-27T23:39:14.033Z,99.92
2022-11-27T23:41:42.985Z,99.94
2022-11-27T23:44:11.086Z,100.00
2022-11-27T23:46:39.190Z,100.00
2022-11-27T23:49:07.160Z,100.00
2022-11-27T23:51:35.356Z,100.00
2022-11-27T23:54:08.542Z,100.00
2022-11-27T23:56:37.369Z,100.00
2022-11-27T23:59:05.643Z,100.00
